sensor_id;sensor_type;location;lat;lon;timestamp;P1;durP1;ratioP1;P2;durP2;ratioP2
59587;SDS011;45412;54.472;18.464;2023-04-07T00:02:53;12.20;;;5.80;;
59587;SDS011;45412;54.472;18.464;2023-04-07T00:05:41;13.20;;;6.30;;
59587;SDS011;45412;54.472;18.464;2023-04-07T00:08:29;13.60;;;5.70;;
59587;SDS011;45412;54.472;18.464;2023-04-07T00:11:17;12.80;;;5.80;;
59587;SDS011;45412;54.472;18.464;2023-04-07T00:14:04;13.00;;;6.30;;
59587;SDS011;45412;54.472;18.464;2023-04-07T00:16:52;12.00;;;5.70;;
59587;SDS011;45412;54.472;18.464;2023-04-07T00:19:40;12.10;;;5.50;;
59587;SDS011;45412;54.472;18.464;2023-04-07T00:22:28;12.20;;;6.10;;
59587;SDS011;45412;54.472;18.464;2023-04-07T00:25:16;13.30;;;6.50;;
59587;SDS011;45412;54.472;18.464;2023-04-07T00:28:04;14.30;;;6.60;;
59587;SDS011;45412;54.472;18.464;2023-04-07T00:30:52;12.60;;;6.80;;
59587;SDS011;45412;54.472;18.464;2023-04-07T00:33:41;13.90;;;6.60;;
59587;SDS011;45412;54.472;18.464;2023-04-07T00:36:28;14.60;;;6.30;;
59587;SDS011;45412;54.472;18.464;2023-04-07T00:39:19;12.00;;;5.40;;
59587;SDS011;45412;54.472;18.464;2023-04-07T00:42:08;14.30;;;6.00;;
59587;SDS011;45412;54.472;18.464;2023-04-07T00:44:57;13.20;;;6.00;;
59587;SDS011;45412;54.472;18.464;2023-04-07T00:47:46;13.60;;;6.30;;
59587;SDS011;45412;54.472;18.464;2023-04-07T00:50:34;14.40;;;6.50;;
59587;SDS011;45412;54.472;18.464;2023-04-07T00:53:22;12.30;;;6.00;;
59587;SDS011;45412;54.472;18.464;2023-04-07T00:56:10;15.20;;;7.10;;
59587;SDS011;45412;54.472;18.464;2023-04-07T00:58:58;12.80;;;6.90;;
59587;SDS011;45412;54.472;18.464;2023-04-07T01:08:23;11.10;;;4.60;;
59587;SDS011;45412;54.472;18.464;2023-04-07T01:14:14;11.20;;;5.20;;
59587;SDS011;45412;54.472;18.464;2023-04-07T01:17:12;11.50;;;5.20;;
59587;SDS011;45412;54.472;18.464;2023-04-07T01:20:04;12.00;;;5.60;;
59587;SDS011;45412;54.472;18.464;2023-04-07T01:22:58;13.60;;;6.30;;
59587;SDS011;45412;54.472;18.464;2023-04-07T01:26:25;14.30;;;6.40;;
59587;SDS011;45412;54.472;18.464;2023-04-07T01:29:37;15.00;;;6.40;;
59587;SDS011;45412;54.472;18.464;2023-04-07T01:32:34;14.40;;;6.40;;
59587;SDS011;45412;54.472;18.464;2023-04-07T01:35:24;13.30;;;6.10;;
59587;SDS011;45412;54.472;18.464;2023-04-07T01:38:18;13.60;;;6.60;;
59587;SDS011;45412;54.472;18.464;2023-04-07T01:41:08;16.00;;;7.30;;
59587;SDS011;45412;54.472;18.464;2023-04-07T01:43:57;14.90;;;6.70;;
59587;SDS011;45412;54.472;18.464;2023-04-07T01:46:47;12.20;;;5.60;;
59587;SDS011;45412;54.472;18.464;2023-04-07T01:49:38;13.50;;;5.80;;
59587;SDS011;45412;54.472;18.464;2023-04-07T01:52:27;10.90;;;4.50;;
59587;SDS011;45412;54.472;18.464;2023-04-07T01:55:16;11.90;;;4.90;;
59587;SDS011;45412;54.472;18.464;2023-04-07T01:58:20;12.50;;;5.60;;
59587;SDS011;45412;54.472;18.464;2023-04-07T02:01:09;15.90;;;6.90;;
59587;SDS011;45412;54.472;18.464;2023-04-07T02:04:24;13.60;;;5.70;;
59587;SDS011;45412;54.472;18.464;2023-04-07T02:07:36;16.20;;;6.30;;
59587;SDS011;45412;54.472;18.464;2023-04-07T02:10:29;10.50;;;4.50;;
59587;SDS011;45412;54.472;18.464;2023-04-07T02:13:21;14.40;;;6.30;;
59587;SDS011;45412;54.472;18.464;2023-04-07T02:16:11;14.80;;;6.20;;
59587;SDS011;45412;54.472;18.464;2023-04-07T02:18:59;14.40;;;6.80;;
59587;SDS011;45412;54.472;18.464;2023-04-07T02:21:49;15.90;;;6.00;;
59587;SDS011;45412;54.472;18.464;2023-04-07T02:24:42;12.50;;;5.70;;
59587;SDS011;45412;54.472;18.464;2023-04-07T02:27:32;11.60;;;5.20;;
59587;SDS011;45412;54.472;18.464;2023-04-07T02:30:20;12.30;;;4.90;;
59587;SDS011;45412;54.472;18.464;2023-04-07T02:33:10;16.00;;;7.20;;
59587;SDS011;45412;54.472;18.464;2023-04-07T02:35:58;15.00;;;6.20;;
59587;SDS011;45412;54.472;18.464;2023-04-07T02:38:48;14.80;;;6.60;;
59587;SDS011;45412;54.472;18.464;2023-04-07T02:41:36;14.00;;;6.20;;
59587;SDS011;45412;54.472;18.464;2023-04-07T02:44:24;12.60;;;5.50;;
59587;SDS011;45412;54.472;18.464;2023-04-07T02:47:11;13.20;;;5.70;;
59587;SDS011;45412;54.472;18.464;2023-04-07T02:49:59;14.70;;;6.50;;
59587;SDS011;45412;54.472;18.464;2023-04-07T02:52:47;14.70;;;6.50;;
59587;SDS011;45412;54.472;18.464;2023-04-07T02:55:35;13.50;;;5.80;;
59587;SDS011;45412;54.472;18.464;2023-04-07T02:58:23;14.50;;;6.70;;
59587;SDS011;45412;54.472;18.464;2023-04-07T03:01:11;14.90;;;6.20;;
59587;SDS011;45412;54.472;18.464;2023-04-07T03:03:59;16.10;;;7.80;;
59587;SDS011;45412;54.472;18.464;2023-04-07T03:06:48;18.80;;;8.30;;
59587;SDS011;45412;54.472;18.464;2023-04-07T03:09:36;17.60;;;7.30;;
59587;SDS011;45412;54.472;18.464;2023-04-07T03:12:24;15.90;;;6.70;;
59587;SDS011;45412;54.472;18.464;2023-04-07T03:15:12;16.40;;;6.70;;
59587;SDS011;45412;54.472;18.464;2023-04-07T03:18:03;17.60;;;7.80;;
59587;SDS011;45412;54.472;18.464;2023-04-07T03:20:52;20.80;;;9.30;;
59587;SDS011;45412;54.472;18.464;2023-04-07T03:23:42;19.10;;;9.40;;
59587;SDS011;45412;54.472;18.464;2023-04-07T03:26:30;16.90;;;8.10;;
59587;SDS011;45412;54.472;18.464;2023-04-07T03:29:18;16.10;;;7.10;;
59587;SDS011;45412;54.472;18.464;2023-04-07T03:32:05;14.90;;;6.60;;
59587;SDS011;45412;54.472;18.464;2023-04-07T03:34:53;20.90;;;8.70;;
59587;SDS011;45412;54.472;18.464;2023-04-07T03:37:41;18.30;;;8.40;;
59587;SDS011;45412;54.472;18.464;2023-04-07T03:40:32;17.00;;;7.60;;
59587;SDS011;45412;54.472;18.464;2023-04-07T03:43:22;14.50;;;6.60;;
59587;SDS011;45412;54.472;18.464;2023-04-07T03:46:10;14.40;;;6.10;;
59587;SDS011;45412;54.472;18.464;2023-04-07T03:48:58;17.00;;;7.70;;
59587;SDS011;45412;54.472;18.464;2023-04-07T03:51:46;16.00;;;7.20;;
59587;SDS011;45412;54.472;18.464;2023-04-07T03:54:37;13.30;;;5.50;;
59587;SDS011;45412;54.472;18.464;2023-04-07T03:57:27;14.70;;;6.60;;
59587;SDS011;45412;54.472;18.464;2023-04-07T04:00:15;14.10;;;6.20;;
59587;SDS011;45412;54.472;18.464;2023-04-07T04:03:13;16.80;;;7.20;;
59587;SDS011;45412;54.472;18.464;2023-04-07T04:06:21;16.40;;;7.10;;
59587;SDS011;45412;54.472;18.464;2023-04-07T04:09:13;16.10;;;7.20;;
59587;SDS011;45412;54.472;18.464;2023-04-07T04:12:08;15.60;;;6.90;;
59587;SDS011;45412;54.472;18.464;2023-04-07T04:15:01;13.10;;;6.00;;
59587;SDS011;45412;54.472;18.464;2023-04-07T04:17:54;16.70;;;7.30;;
59587;SDS011;45412;54.472;18.464;2023-04-07T04:20:46;17.10;;;7.30;;
59587;SDS011;45412;54.472;18.464;2023-04-07T04:23:36;15.10;;;6.30;;
59587;SDS011;45412;54.472;18.464;2023-04-07T04:26:24;14.40;;;7.00;;
59587;SDS011;45412;54.472;18.464;2023-04-07T04:29:15;13.80;;;6.10;;
59587;SDS011;45412;54.472;18.464;2023-04-07T04:32:03;15.60;;;6.50;;
59587;SDS011;45412;54.472;18.464;2023-04-07T04:34:53;18.50;;;8.00;;
59587;SDS011;45412;54.472;18.464;2023-04-07T04:37:44;14.70;;;6.80;;
59587;SDS011;45412;54.472;18.464;2023-04-07T04:40:34;13.70;;;6.80;;
59587;SDS011;45412;54.472;18.464;2023-04-07T04:43:23;14.60;;;6.10;;
59587;SDS011;45412;54.472;18.464;2023-04-07T04:46:11;14.30;;;6.20;;
59587;SDS011;45412;54.472;18.464;2023-04-07T04:49:10;13.20;;;6.10;;
59587;SDS011;45412;54.472;18.464;2023-04-07T04:51:59;14.50;;;6.80;;
59587;SDS011;45412;54.472;18.464;2023-04-07T04:54:56;13.30;;;5.60;;
59587;SDS011;45412;54.472;18.464;2023-04-07T04:57:46;14.00;;;6.30;;
59587;SDS011;45412;54.472;18.464;2023-04-07T05:00:38;13.30;;;6.10;;
59587;SDS011;45412;54.472;18.464;2023-04-07T05:03:27;15.30;;;6.70;;
59587;SDS011;45412;54.472;18.464;2023-04-07T05:06:17;16.10;;;6.80;;
59587;SDS011;45412;54.472;18.464;2023-04-07T05:09:06;16.20;;;7.20;;
59587;SDS011;45412;54.472;18.464;2023-04-07T05:12:02;12.70;;;5.60;;
59587;SDS011;45412;54.472;18.464;2023-04-07T05:14:53;12.50;;;5.40;;
59587;SDS011;45412;54.472;18.464;2023-04-07T05:17:41;13.60;;;6.20;;
59587;SDS011;45412;54.472;18.464;2023-04-07T05:20:30;13.50;;;6.20;;
59587;SDS011;45412;54.472;18.464;2023-04-07T05:23:18;13.40;;;6.20;;
59587;SDS011;45412;54.472;18.464;2023-04-07T05:26:07;14.90;;;6.70;;
59587;SDS011;45412;54.472;18.464;2023-04-07T05:28:56;14.20;;;6.60;;
59587;SDS011;45412;54.472;18.464;2023-04-07T05:31:44;13.60;;;6.20;;
59587;SDS011;45412;54.472;18.464;2023-04-07T05:34:33;14.00;;;6.50;;
59587;SDS011;45412;54.472;18.464;2023-04-07T05:37:22;13.80;;;5.60;;
59587;SDS011;45412;54.472;18.464;2023-04-07T05:40:10;12.60;;;5.60;;
59587;SDS011;45412;54.472;18.464;2023-04-07T05:42:59;15.70;;;7.00;;
59587;SDS011;45412;54.472;18.464;2023-04-07T05:45:49;13.90;;;6.10;;
59587;SDS011;45412;54.472;18.464;2023-04-07T05:48:40;13.90;;;6.20;;
59587;SDS011;45412;54.472;18.464;2023-04-07T05:51:28;12.40;;;6.00;;
59587;SDS011;45412;54.472;18.464;2023-04-07T05:54:28;14.00;;;6.10;;
59587;SDS011;45412;54.472;18.464;2023-04-07T05:57:38;13.50;;;6.30;;
59587;SDS011;45412;54.472;18.464;2023-04-07T06:00:30;12.00;;;6.10;;
59587;SDS011;45412;54.472;18.464;2023-04-07T06:03:23;13.80;;;5.70;;
59587;SDS011;45412;54.472;18.464;2023-04-07T06:06:21;13.70;;;6.10;;
59587;SDS011;45412;54.472;18.464;2023-04-07T06:09:09;14.90;;;6.40;;
59587;SDS011;45412;54.472;18.464;2023-04-07T06:11:59;13.70;;;6.40;;
59587;SDS011;45412;54.472;18.464;2023-04-07T06:14:54;14.60;;;6.60;;
59587;SDS011;45412;54.472;18.464;2023-04-07T06:17:43;14.60;;;5.80;;
59587;SDS011;45412;54.472;18.464;2023-04-07T06:20:32;14.00;;;6.10;;
59587;SDS011;45412;54.472;18.464;2023-04-07T06:23:20;15.60;;;6.20;;
59587;SDS011;45412;54.472;18.464;2023-04-07T06:26:10;13.50;;;5.50;;
59587;SDS011;45412;54.472;18.464;2023-04-07T06:29:00;15.70;;;7.00;;
59587;SDS011;45412;54.472;18.464;2023-04-07T06:31:48;16.70;;;7.40;;
59587;SDS011;45412;54.472;18.464;2023-04-07T06:34:36;13.90;;;6.20;;
59587;SDS011;45412;54.472;18.464;2023-04-07T06:37:23;12.10;;;5.90;;
59587;SDS011;45412;54.472;18.464;2023-04-07T06:40:13;11.80;;;5.40;;
59587;SDS011;45412;54.472;18.464;2023-04-07T06:43:01;13.20;;;6.10;;
59587;SDS011;45412;54.472;18.464;2023-04-07T06:45:58;13.30;;;5.90;;
59587;SDS011;45412;54.472;18.464;2023-04-07T06:48:47;13.00;;;5.60;;
59587;SDS011;45412;54.472;18.464;2023-04-07T06:51:35;11.00;;;4.80;;
59587;SDS011;45412;54.472;18.464;2023-04-07T06:54:23;12.10;;;4.70;;
59587;SDS011;45412;54.472;18.464;2023-04-07T06:57:14;12.20;;;5.40;;
59587;SDS011;45412;54.472;18.464;2023-04-07T07:00:03;10.00;;;4.20;;
59587;SDS011;45412;54.472;18.464;2023-04-07T07:02:56;13.50;;;6.10;;
59587;SDS011;45412;54.472;18.464;2023-04-07T07:05:47;14.50;;;6.10;;
59587;SDS011;45412;54.472;18.464;2023-04-07T07:08:36;16.90;;;7.10;;
59587;SDS011;45412;54.472;18.464;2023-04-07T07:11:25;15.80;;;6.20;;
59587;SDS011;45412;54.472;18.464;2023-04-07T07:14:13;17.20;;;7.30;;
59587;SDS011;45412;54.472;18.464;2023-04-07T07:17:04;15.30;;;7.30;;
59587;SDS011;45412;54.472;18.464;2023-04-07T07:19:52;16.10;;;6.10;;
59587;SDS011;45412;54.472;18.464;2023-04-07T07:22:41;15.10;;;6.50;;
59587;SDS011;45412;54.472;18.464;2023-04-07T07:25:29;14.40;;;6.40;;
59587;SDS011;45412;54.472;18.464;2023-04-07T07:28:17;14.90;;;6.80;;
59587;SDS011;45412;54.472;18.464;2023-04-07T07:31:11;16.00;;;7.20;;
59587;SDS011;45412;54.472;18.464;2023-04-07T07:34:01;13.20;;;5.80;;
59587;SDS011;45412;54.472;18.464;2023-04-07T07:36:50;14.40;;;6.30;;
59587;SDS011;45412;54.472;18.464;2023-04-07T07:39:38;14.20;;;6.70;;
59587;SDS011;45412;54.472;18.464;2023-04-07T07:42:26;16.20;;;7.30;;
59587;SDS011;45412;54.472;18.464;2023-04-07T07:45:14;16.60;;;7.80;;
59587;SDS011;45412;54.472;18.464;2023-04-07T07:48:04;15.20;;;7.20;;
59587;SDS011;45412;54.472;18.464;2023-04-07T07:50:52;14.20;;;6.50;;
59587;SDS011;45412;54.472;18.464;2023-04-07T07:53:43;13.50;;;6.50;;
59587;SDS011;45412;54.472;18.464;2023-04-07T07:56:32;15.70;;;6.90;;
59587;SDS011;45412;54.472;18.464;2023-04-07T07:59:20;14.00;;;6.30;;
59587;SDS011;45412;54.472;18.464;2023-04-07T08:02:09;13.50;;;6.20;;
59587;SDS011;45412;54.472;18.464;2023-04-07T08:04:57;13.20;;;6.00;;
59587;SDS011;45412;54.472;18.464;2023-04-07T08:07:45;11.80;;;5.70;;
59587;SDS011;45412;54.472;18.464;2023-04-07T08:10:34;14.40;;;6.90;;
59587;SDS011;45412;54.472;18.464;2023-04-07T08:13:21;13.00;;;6.20;;
59587;SDS011;45412;54.472;18.464;2023-04-07T08:16:10;11.50;;;5.90;;
59587;SDS011;45412;54.472;18.464;2023-04-07T08:18:58;13.10;;;6.20;;
59587;SDS011;45412;54.472;18.464;2023-04-07T08:21:47;13.10;;;6.40;;
59587;SDS011;45412;54.472;18.464;2023-04-07T08:24:34;14.40;;;6.10;;
59587;SDS011;45412;54.472;18.464;2023-04-07T08:27:22;14.50;;;6.90;;
59587;SDS011;45412;54.472;18.464;2023-04-07T08:30:10;20.40;;;10.30;;
59587;SDS011;45412;54.472;18.464;2023-04-07T08:32:57;14.40;;;7.20;;
59587;SDS011;45412;54.472;18.464;2023-04-07T08:35:45;15.60;;;7.30;;
59587;SDS011;45412;54.472;18.464;2023-04-07T08:38:35;15.30;;;7.00;;
59587;SDS011;45412;54.472;18.464;2023-04-07T08:41:29;16.70;;;7.50;;
59587;SDS011;45412;54.472;18.464;2023-04-07T08:44:24;16.10;;;7.20;;
59587;SDS011;45412;54.472;18.464;2023-04-07T08:47:14;15.60;;;6.80;;
59587;SDS011;45412;54.472;18.464;2023-04-07T08:50:06;15.80;;;8.00;;
59587;SDS011;45412;54.472;18.464;2023-04-07T08:52:56;14.30;;;5.90;;
59587;SDS011;45412;54.472;18.464;2023-04-07T08:55:47;13.10;;;5.50;;
59587;SDS011;45412;54.472;18.464;2023-04-07T08:58:35;16.20;;;9.00;;
59587;SDS011;45412;54.472;18.464;2023-04-07T09:01:24;17.80;;;8.70;;
59587;SDS011;45412;54.472;18.464;2023-04-07T09:04:12;16.20;;;7.80;;
59587;SDS011;45412;54.472;18.464;2023-04-07T09:07:00;14.40;;;6.80;;
59587;SDS011;45412;54.472;18.464;2023-04-07T09:09:48;16.50;;;7.60;;
59587;SDS011;45412;54.472;18.464;2023-04-07T09:12:37;18.70;;;9.00;;
59587;SDS011;45412;54.472;18.464;2023-04-07T09:15:28;17.20;;;8.80;;
59587;SDS011;45412;54.472;18.464;2023-04-07T09:18:18;16.50;;;8.20;;
59587;SDS011;45412;54.472;18.464;2023-04-07T09:21:07;16.10;;;7.60;;
59587;SDS011;45412;54.472;18.464;2023-04-07T09:23:57;14.90;;;7.20;;
59587;SDS011;45412;54.472;18.464;2023-04-07T09:26:45;17.40;;;8.80;;
59587;SDS011;45412;54.472;18.464;2023-04-07T09:29:33;16.30;;;8.00;;
59587;SDS011;45412;54.472;18.464;2023-04-07T09:32:35;18.00;;;9.00;;
59587;SDS011;45412;54.472;18.464;2023-04-07T09:35:27;18.10;;;9.60;;
59587;SDS011;45412;54.472;18.464;2023-04-07T09:38:16;20.30;;;9.90;;
59587;SDS011;45412;54.472;18.464;2023-04-07T09:41:09;16.40;;;8.10;;
59587;SDS011;45412;54.472;18.464;2023-04-07T09:44:00;18.30;;;8.70;;
59587;SDS011;45412;54.472;18.464;2023-04-07T09:46:53;16.70;;;8.60;;
59587;SDS011;45412;54.472;18.464;2023-04-07T09:49:50;18.60;;;9.10;;
59587;SDS011;45412;54.472;18.464;2023-04-07T09:55:39;17.60;;;8.20;;
59587;SDS011;45412;54.472;18.464;2023-04-07T09:58:27;21.70;;;10.70;;
59587;SDS011;45412;54.472;18.464;2023-04-07T10:01:16;20.30;;;10.10;;
59587;SDS011;45412;54.472;18.464;2023-04-07T10:04:05;17.90;;;8.70;;
59587;SDS011;45412;54.472;18.464;2023-04-07T10:06:55;17.30;;;8.10;;
59587;SDS011;45412;54.472;18.464;2023-04-07T10:09:44;18.60;;;9.20;;
59587;SDS011;45412;54.472;18.464;2023-04-07T10:12:33;15.80;;;8.10;;
59587;SDS011;45412;54.472;18.464;2023-04-07T10:15:26;19.20;;;8.30;;
59587;SDS011;45412;54.472;18.464;2023-04-07T10:18:15;19.10;;;8.60;;
59587;SDS011;45412;54.472;18.464;2023-04-07T10:21:06;15.40;;;8.20;;
59587;SDS011;45412;54.472;18.464;2023-04-07T10:27:25;15.40;;;8.30;;
59587;SDS011;45412;54.472;18.464;2023-04-07T10:30:24;16.80;;;8.60;;
59587;SDS011;45412;54.472;18.464;2023-04-07T10:33:15;15.70;;;8.60;;
59587;SDS011;45412;54.472;18.464;2023-04-07T10:36:05;15.60;;;8.10;;
59587;SDS011;45412;54.472;18.464;2023-04-07T10:41:54;18.10;;;9.70;;
59587;SDS011;45412;54.472;18.464;2023-04-07T10:47:30;14.30;;;7.70;;
59587;SDS011;45412;54.472;18.464;2023-04-07T10:50:20;17.00;;;9.30;;
59587;SDS011;45412;54.472;18.464;2023-04-07T10:56:01;17.00;;;9.40;;
59587;SDS011;45412;54.472;18.464;2023-04-07T10:58:49;20.20;;;10.20;;
59587;SDS011;45412;54.472;18.464;2023-04-07T11:05:01;17.00;;;9.60;;
59587;SDS011;45412;54.472;18.464;2023-04-07T11:07:52;16.00;;;9.00;;
59587;SDS011;45412;54.472;18.464;2023-04-07T11:10:46;17.80;;;9.00;;
59587;SDS011;45412;54.472;18.464;2023-04-07T11:13:43;16.20;;;9.20;;
59587;SDS011;45412;54.472;18.464;2023-04-07T11:16:41;17.70;;;9.10;;
59587;SDS011;45412;54.472;18.464;2023-04-07T11:19:29;18.00;;;10.00;;
59587;SDS011;45412;54.472;18.464;2023-04-07T11:22:20;18.80;;;9.20;;
59587;SDS011;45412;54.472;18.464;2023-04-07T11:25:20;15.60;;;9.00;;
59587;SDS011;45412;54.472;18.464;2023-04-07T11:28:09;14.70;;;8.60;;
59587;SDS011;45412;54.472;18.464;2023-04-07T11:30:59;15.10;;;8.70;;
59587;SDS011;45412;54.472;18.464;2023-04-07T11:34:00;17.20;;;9.60;;
59587;SDS011;45412;54.472;18.464;2023-04-07T11:36:51;15.60;;;9.50;;
59587;SDS011;45412;54.472;18.464;2023-04-07T11:39:38;14.20;;;7.70;;
59587;SDS011;45412;54.472;18.464;2023-04-07T11:42:36;14.40;;;8.20;;
59587;SDS011;45412;54.472;18.464;2023-04-07T11:45:26;14.80;;;7.50;;
59587;SDS011;45412;54.472;18.464;2023-04-07T11:48:31;15.80;;;8.40;;
59587;SDS011;45412;54.472;18.464;2023-04-07T11:51:21;17.30;;;8.80;;
59587;SDS011;45412;54.472;18.464;2023-04-07T11:54:10;15.40;;;8.80;;
59587;SDS011;45412;54.472;18.464;2023-04-07T11:56:59;15.80;;;8.50;;
59587;SDS011;45412;54.472;18.464;2023-04-07T11:59:48;15.70;;;8.30;;
59587;SDS011;45412;54.472;18.464;2023-04-07T12:02:37;15.30;;;7.40;;
59587;SDS011;45412;54.472;18.464;2023-04-07T12:05:25;18.20;;;7.90;;
59587;SDS011;45412;54.472;18.464;2023-04-07T12:11:48;15.50;;;9.30;;
59587;SDS011;45412;54.472;18.464;2023-04-07T12:14:36;16.00;;;8.50;;
59587;SDS011;45412;54.472;18.464;2023-04-07T12:17:25;15.60;;;9.40;;
59587;SDS011;45412;54.472;18.464;2023-04-07T12:20:14;13.80;;;8.00;;
59587;SDS011;45412;54.472;18.464;2023-04-07T12:23:03;16.90;;;8.30;;
59587;SDS011;45412;54.472;18.464;2023-04-07T12:25:50;15.40;;;8.70;;
59587;SDS011;45412;54.472;18.464;2023-04-07T12:28:39;16.10;;;8.20;;
59587;SDS011;45412;54.472;18.464;2023-04-07T12:31:27;15.40;;;8.20;;
59587;SDS011;45412;54.472;18.464;2023-04-07T12:34:15;15.60;;;8.30;;
59587;SDS011;45412;54.472;18.464;2023-04-07T12:37:03;14.90;;;8.50;;
59587;SDS011;45412;54.472;18.464;2023-04-07T12:39:51;14.50;;;8.40;;
59587;SDS011;45412;54.472;18.464;2023-04-07T12:42:39;17.20;;;8.40;;
59587;SDS011;45412;54.472;18.464;2023-04-07T12:45:27;16.00;;;8.30;;
59587;SDS011;45412;54.472;18.464;2023-04-07T12:48:17;18.40;;;7.90;;
59587;SDS011;45412;54.472;18.464;2023-04-07T12:51:05;14.80;;;8.50;;
59587;SDS011;45412;54.472;18.464;2023-04-07T12:53:53;15.90;;;9.30;;
59587;SDS011;45412;54.472;18.464;2023-04-07T12:56:42;18.10;;;8.80;;
59587;SDS011;45412;54.472;18.464;2023-04-07T12:59:31;16.30;;;8.70;;
59587;SDS011;45412;54.472;18.464;2023-04-07T13:02:19;14.70;;;8.20;;
59587;SDS011;45412;54.472;18.464;2023-04-07T13:05:11;16.90;;;9.60;;
59587;SDS011;45412;54.472;18.464;2023-04-07T13:07:59;14.50;;;7.70;;
59587;SDS011;45412;54.472;18.464;2023-04-07T13:10:47;16.10;;;8.90;;
59587;SDS011;45412;54.472;18.464;2023-04-07T13:13:35;15.60;;;8.50;;
59587;SDS011;45412;54.472;18.464;2023-04-07T13:16:23;17.00;;;8.20;;
59587;SDS011;45412;54.472;18.464;2023-04-07T13:19:11;16.00;;;8.70;;
59587;SDS011;45412;54.472;18.464;2023-04-07T13:22:00;16.30;;;8.10;;
59587;SDS011;45412;54.472;18.464;2023-04-07T13:24:53;14.80;;;8.00;;
59587;SDS011;45412;54.472;18.464;2023-04-07T13:27:42;15.20;;;8.70;;
59587;SDS011;45412;54.472;18.464;2023-04-07T13:30:30;17.40;;;9.00;;
59587;SDS011;45412;54.472;18.464;2023-04-07T13:33:18;14.10;;;8.10;;
59587;SDS011;45412;54.472;18.464;2023-04-07T13:36:10;15.60;;;9.00;;
59587;SDS011;45412;54.472;18.464;2023-04-07T13:38:58;15.30;;;8.20;;
59587;SDS011;45412;54.472;18.464;2023-04-07T13:41:46;16.50;;;8.70;;
59587;SDS011;45412;54.472;18.464;2023-04-07T13:44:34;16.80;;;8.70;;
59587;SDS011;45412;54.472;18.464;2023-04-07T13:47:23;15.00;;;8.40;;
59587;SDS011;45412;54.472;18.464;2023-04-07T13:50:11;17.10;;;8.50;;
59587;SDS011;45412;54.472;18.464;2023-04-07T13:53:00;16.20;;;8.20;;
59587;SDS011;45412;54.472;18.464;2023-04-07T13:55:48;22.70;;;12.30;;
59587;SDS011;45412;54.472;18.464;2023-04-07T13:58:36;16.90;;;8.40;;
59587;SDS011;45412;54.472;18.464;2023-04-07T14:01:24;17.10;;;8.50;;
59587;SDS011;45412;54.472;18.464;2023-04-07T14:04:13;14.50;;;8.20;;
59587;SDS011;45412;54.472;18.464;2023-04-07T14:07:01;15.90;;;7.50;;
59587;SDS011;45412;54.472;18.464;2023-04-07T14:09:50;13.70;;;6.80;;
59587;SDS011;45412;54.472;18.464;2023-04-07T14:12:38;14.40;;;7.40;;
59587;SDS011;45412;54.472;18.464;2023-04-07T14:15:26;15.00;;;7.50;;
59587;SDS011;45412;54.472;18.464;2023-04-07T14:18:14;14.00;;;7.90;;
59587;SDS011;45412;54.472;18.464;2023-04-07T14:21:04;17.30;;;8.10;;
59587;SDS011;45412;54.472;18.464;2023-04-07T14:23:53;15.50;;;7.70;;
59587;SDS011;45412;54.472;18.464;2023-04-07T14:26:43;14.10;;;7.70;;
59587;SDS011;45412;54.472;18.464;2023-04-07T14:29:35;14.70;;;7.60;;
59587;SDS011;45412;54.472;18.464;2023-04-07T14:32:25;16.00;;;8.30;;
59587;SDS011;45412;54.472;18.464;2023-04-07T14:35:16;15.10;;;7.80;;
59587;SDS011;45412;54.472;18.464;2023-04-07T14:38:04;17.80;;;8.80;;
59587;SDS011;45412;54.472;18.464;2023-04-07T14:40:54;15.10;;;7.90;;
59587;SDS011;45412;54.472;18.464;2023-04-07T14:43:42;17.50;;;8.30;;
59587;SDS011;45412;54.472;18.464;2023-04-07T14:46:39;14.80;;;8.00;;
59587;SDS011;45412;54.472;18.464;2023-04-07T14:49:29;16.90;;;9.20;;
59587;SDS011;45412;54.472;18.464;2023-04-07T14:52:17;19.10;;;9.90;;
59587;SDS011;45412;54.472;18.464;2023-04-07T14:55:06;17.80;;;9.00;;
59587;SDS011;45412;54.472;18.464;2023-04-07T14:57:54;16.40;;;9.20;;
59587;SDS011;45412;54.472;18.464;2023-04-07T15:00:41;18.20;;;9.60;;
59587;SDS011;45412;54.472;18.464;2023-04-07T15:03:31;17.50;;;9.60;;
59587;SDS011;45412;54.472;18.464;2023-04-07T15:06:20;18.30;;;10.00;;
59587;SDS011;45412;54.472;18.464;2023-04-07T15:09:10;17.70;;;9.70;;
59587;SDS011;45412;54.472;18.464;2023-04-07T15:11:58;18.90;;;9.90;;
59587;SDS011;45412;54.472;18.464;2023-04-07T15:14:50;17.10;;;9.80;;
59587;SDS011;45412;54.472;18.464;2023-04-07T15:17:41;22.70;;;11.30;;
59587;SDS011;45412;54.472;18.464;2023-04-07T15:20:31;29.20;;;12.90;;
59587;SDS011;45412;54.472;18.464;2023-04-07T15:23:19;26.60;;;12.90;;
59587;SDS011;45412;54.472;18.464;2023-04-07T15:26:07;23.40;;;12.20;;
59587;SDS011;45412;54.472;18.464;2023-04-07T15:28:56;24.20;;;11.90;;
59587;SDS011;45412;54.472;18.464;2023-04-07T15:31:44;24.70;;;13.10;;
59587;SDS011;45412;54.472;18.464;2023-04-07T15:34:32;24.30;;;11.70;;
59587;SDS011;45412;54.472;18.464;2023-04-07T15:37:20;23.40;;;11.60;;
59587;SDS011;45412;54.472;18.464;2023-04-07T15:40:11;18.30;;;10.40;;
59587;SDS011;45412;54.472;18.464;2023-04-07T15:42:59;20.20;;;11.00;;
59587;SDS011;45412;54.472;18.464;2023-04-07T15:45:49;17.80;;;9.20;;
59587;SDS011;45412;54.472;18.464;2023-04-07T15:48:38;15.40;;;8.40;;
59587;SDS011;45412;54.472;18.464;2023-04-07T15:51:28;17.60;;;8.20;;
59587;SDS011;45412;54.472;18.464;2023-04-07T15:54:20;14.80;;;8.20;;
59587;SDS011;45412;54.472;18.464;2023-04-07T15:57:11;16.20;;;8.70;;
59587;SDS011;45412;54.472;18.464;2023-04-07T16:00:04;14.30;;;7.90;;
59587;SDS011;45412;54.472;18.464;2023-04-07T16:02:56;13.70;;;7.30;;
59587;SDS011;45412;54.472;18.464;2023-04-07T16:05:45;13.90;;;6.90;;
59587;SDS011;45412;54.472;18.464;2023-04-07T16:08:33;16.80;;;8.40;;
59587;SDS011;45412;54.472;18.464;2023-04-07T16:11:21;17.70;;;9.00;;
59587;SDS011;45412;54.472;18.464;2023-04-07T16:14:09;16.60;;;8.90;;
59587;SDS011;45412;54.472;18.464;2023-04-07T16:16:57;21.20;;;9.60;;
59587;SDS011;45412;54.472;18.464;2023-04-07T16:19:45;17.10;;;9.40;;
59587;SDS011;45412;54.472;18.464;2023-04-07T16:22:33;18.20;;;9.60;;
59587;SDS011;45412;54.472;18.464;2023-04-07T16:25:20;17.30;;;9.10;;
59587;SDS011;45412;54.472;18.464;2023-04-07T16:28:08;22.00;;;9.80;;
59587;SDS011;45412;54.472;18.464;2023-04-07T16:30:56;20.70;;;9.70;;
59587;SDS011;45412;54.472;18.464;2023-04-07T16:33:44;21.00;;;9.10;;
59587;SDS011;45412;54.472;18.464;2023-04-07T16:36:32;20.90;;;10.50;;
59587;SDS011;45412;54.472;18.464;2023-04-07T16:39:19;19.20;;;9.00;;
59587;SDS011;45412;54.472;18.464;2023-04-07T16:42:10;19.60;;;9.20;;
59587;SDS011;45412;54.472;18.464;2023-04-07T16:44:58;17.40;;;9.10;;
59587;SDS011;45412;54.472;18.464;2023-04-07T16:47:47;20.80;;;9.80;;
59587;SDS011;45412;54.472;18.464;2023-04-07T16:50:40;21.00;;;9.00;;
59587;SDS011;45412;54.472;18.464;2023-04-07T16:53:30;24.30;;;10.10;;
59587;SDS011;45412;54.472;18.464;2023-04-07T16:56:20;23.00;;;10.70;;
59587;SDS011;45412;54.472;18.464;2023-04-07T16:59:10;24.20;;;10.00;;
59587;SDS011;45412;54.472;18.464;2023-04-07T17:01:58;26.00;;;10.80;;
59587;SDS011;45412;54.472;18.464;2023-04-07T17:04:53;22.90;;;10.10;;
59587;SDS011;45412;54.472;18.464;2023-04-07T17:07:41;27.00;;;10.80;;